createdAt,value
2018-04-25T00:01:13.765Z,68.90
2018-04-25T00:03:41.270Z,68.20
2018-04-25T00:06:08.764Z,68.40
2018-04-25T00:08:36.250Z,68.10
2018-04-25T00:11:03.744Z,68.30
2018-04-25T00:13:32.002Z,69.20
2018-04-25T00:16:00.347Z,70.20
2018-04-25T00:18:27.761Z,69.50
2018-04-25T00:20:55.257Z,70.30
2018-04-25T00:23:22.750Z,70.90
2018-04-25T00:25:51.013Z,69.30
2018-04-25T00:28:18.505Z,69.90
2018-04-25T00:30:46.023Z,69.20
2018-04-25T00:33:13.514Z,69.60
2018-04-25T00:35:41.753Z,69.20
2018-04-25T00:38:09.253Z,69.20
2018-04-25T00:40:37.960Z,68.60
2018-04-25T00:43:05.474Z,68.60
2018-04-25T00:45:32.957Z,69.40
2018-04-25T00:48:00.466Z,69.40
2018-04-25T00:50:27.940Z,69.90
2018-04-25T00:52:55.455Z,68.80
2018-04-25T00:55:22.946Z,69.40
2018-04-25T00:57:50.446Z,69.40
2018-04-25T01:00:17.949Z,69.30
2018-04-25T01:02:45.442Z,69.10
2018-04-25T01:05:13.710Z,69.80
2018-04-25T01:07:41.977Z,68.70
2018-04-25T01:10:09.591Z,68.70
2018-04-25T01:12:37.091Z,69.60
2018-04-25T01:15:04.602Z,69.20
2018-04-25T01:17:32.090Z,70.40
2018-04-25T01:20:00.354Z,70.20
2018-04-25T01:22:27.867Z,70.80
2018-04-25T01:25:00.035Z,71.20
2018-04-25T01:27:31.762Z,70.80
2018-04-25T01:29:59.260Z,70.80
2018-04-25T01:32:27.521Z,71.00
2018-04-25T01:34:58.256Z,71.40
2018-04-25T01:37:41.300Z,71.10
2018-04-25T01:40:10.181Z,71.10
2018-04-25T01:45:37.202Z,71.20
2018-04-25T01:48:28.804Z,70.90
2018-04-25T01:50:57.670Z,70.70
2018-04-25T01:53:37.081Z,71.10
2018-04-25T01:56:17.125Z,72.10
2018-04-25T01:58:56.661Z,71.30
2018-04-25T02:01:23.663Z,71.60
2018-04-25T02:03:53.629Z,71.90
2018-04-25T02:06:21.136Z,71.80
2018-04-25T02:08:48.631Z,73.10
2018-04-25T02:11:16.147Z,72.30
2018-04-25T02:13:43.646Z,72.50
2018-04-25T02:16:11.149Z,72.90
2018-04-25T02:18:38.663Z,72.40
2018-04-25T02:21:06.137Z,74.30
2018-04-25T02:23:33.630Z,74.40
2018-04-25T02:26:01.108Z,72.70
2018-04-25T02:28:28.634Z,73.00
2018-04-25T02:30:56.895Z,73.60
2018-04-25T02:33:25.141Z,72.90
2018-04-25T02:35:52.653Z,72.60
2018-04-25T02:38:20.157Z,72.90
2018-04-25T02:40:47.695Z,73.10
2018-04-25T02:43:15.187Z,75.40
2018-04-25T02:45:44.503Z,75.10
2018-04-25T02:48:12.754Z,74.10
2018-04-25T02:50:40.271Z,74.70
2018-04-25T02:53:07.760Z,75.60
2018-04-25T02:55:35.252Z,74.90
2018-04-25T02:58:03.519Z,74.50
2018-04-25T03:00:31.019Z,75.30
2018-04-25T03:02:58.526Z,76.50
2018-04-25T03:05:26.011Z,75.50
2018-04-25T03:07:54.306Z,78.00
2018-04-25T03:10:21.789Z,78.00
2018-04-25T03:12:49.302Z,78.60
2018-04-25T03:15:17.566Z,75.40
2018-04-25T03:17:45.172Z,75.40
2018-04-25T03:20:12.665Z,74.50
2018-04-25T03:22:40.213Z,75.30
2018-04-25T03:25:07.698Z,74.70
2018-04-25T03:27:35.189Z,75.00
2018-04-25T03:30:02.697Z,74.90
2018-04-25T03:32:30.182Z,74.60
2018-04-25T03:34:57.687Z,75.30
2018-04-25T03:37:25.273Z,74.30
2018-04-25T03:39:52.795Z,73.90
2018-04-25T03:42:20.310Z,73.70
2018-04-25T03:44:48.571Z,75.30
2018-04-25T03:47:16.077Z,75.20
2018-04-25T03:49:43.561Z,74.70
2018-04-25T03:52:11.049Z,74.70
2018-04-25T03:54:38.533Z,74.60
2018-04-25T03:57:06.792Z,74.10
2018-04-25T03:59:34.276Z,74.10
2018-04-25T04:02:01.786Z,74.20
2018-04-25T04:04:29.270Z,73.60
2018-04-25T04:06:56.753Z,72.60
2018-04-25T04:09:24.248Z,73.50
2018-04-25T04:11:52.094Z,75.20
2018-04-25T04:14:19.698Z,76.20
2018-04-25T04:16:47.193Z,77.30
2018-04-25T04:19:14.697Z,78.80
2018-04-25T04:21:42.216Z,76.70
2018-04-25T04:24:09.764Z,75.50
2018-04-25T04:26:38.063Z,76.20
2018-04-25T04:29:05.580Z,76.10
2018-04-25T04:31:33.077Z,76.80
2018-04-25T04:34:00.565Z,77.10
2018-04-25T04:36:28.073Z,76.20
2018-04-25T04:38:56.351Z,75.90
2018-04-25T04:41:24.611Z,73.40
2018-04-25T04:43:52.869Z,74.30
2018-04-25T04:46:20.369Z,74.10
2018-04-25T04:48:47.864Z,75.10
2018-04-25T04:51:15.387Z,76.20
2018-04-25T04:53:42.886Z,75.50
2018-04-25T04:56:10.382Z,75.50
2018-04-25T04:58:38.653Z,75.70
2018-04-25T05:01:06.923Z,75.80
2018-04-25T05:03:35.194Z,75.60
2018-04-25T05:06:02.715Z,75.60
2018-04-25T05:08:30.264Z,75.70
2018-04-25T05:10:58.494Z,75.80
2018-04-25T05:13:26.775Z,74.70
2018-04-25T05:15:55.034Z,74.80
2018-04-25T05:18:22.578Z,74.90
2018-04-25T05:20:50.077Z,73.90
2018-04-25T05:23:18.347Z,74.10
2018-04-25T05:25:46.604Z,75.00
2018-04-25T05:28:14.088Z,74.90
2018-04-25T05:30:42.352Z,74.60
2018-04-25T05:33:10.661Z,73.20
2018-04-25T05:35:38.214Z,72.60
2018-04-25T05:38:05.697Z,74.80
2018-04-25T05:40:33.208Z,73.90
2018-04-25T05:43:01.486Z,72.70
2018-04-25T05:45:29.733Z,73.10
2018-04-25T05:47:57.361Z,73.10
2018-04-25T05:50:24.856Z,72.10
2018-04-25T05:52:52.524Z,71.30
2018-04-25T05:55:20.005Z,71.40
2018-04-25T05:57:48.291Z,71.10
2018-04-25T06:00:15.793Z,71.20
2018-04-25T06:02:43.375Z,70.00
2018-04-25T06:05:10.862Z,70.90
2018-04-25T06:07:39.124Z,70.10
2018-04-25T06:10:07.435Z,68.20
2018-04-25T06:12:35.004Z,68.10
2018-04-25T06:15:02.456Z,69.30
2018-04-25T06:17:30.092Z,67.40
2018-04-25T06:19:57.609Z,67.50
2018-04-25T06:22:25.100Z,67.70
2018-04-25T06:24:53.395Z,66.90
2018-04-25T06:27:20.885Z,66.80
2018-04-25T06:29:48.428Z,65.80
2018-04-25T06:32:15.925Z,65.20
2018-04-25T06:34:44.190Z,65.60
2018-04-25T06:37:11.706Z,65.60
2018-04-25T06:39:39.290Z,65.00
2018-04-25T06:42:06.798Z,64.40
2018-04-25T06:44:35.069Z,63.90
2018-04-25T06:47:03.359Z,62.30
2018-04-25T06:49:30.905Z,62.30
2018-04-25T06:51:58.438Z,60.60
2018-04-25T06:54:25.964Z,59.70
2018-04-25T06:56:53.583Z,60.30
2018-04-25T06:59:21.114Z,59.60
2018-04-25T07:01:48.640Z,60.10
2018-04-25T07:04:16.187Z,59.30
2018-04-25T07:06:43.681Z,58.30
2018-04-25T07:09:11.256Z,57.70
2018-04-25T07:11:38.881Z,57.80
2018-04-25T07:14:06.529Z,57.00
2018-04-25T07:16:34.023Z,56.80
2018-04-25T07:19:01.609Z,56.50
2018-04-25T07:21:29.131Z,55.80
2018-04-25T07:23:56.702Z,55.10
2018-04-25T07:26:24.267Z,55.10
2018-04-25T07:28:51.813Z,54.70
2018-04-25T07:31:19.445Z,49.90
2018-04-25T07:33:46.964Z,51.20
2018-04-25T07:36:14.544Z,47.10
2018-04-25T07:38:42.824Z,47.30
2018-04-25T07:41:14.225Z,46.20
2018-04-25T07:43:41.856Z,46.20
2018-04-25T07:46:09.512Z,42.20
2018-04-25T07:48:37.072Z,40.00
2018-04-25T07:51:08.128Z,39.40
2018-04-25T07:53:39.906Z,37.00
2018-04-25T07:56:08.487Z,37.90
2018-04-25T07:58:36.060Z,36.80
2018-04-25T08:01:03.602Z,34.90
2018-04-25T08:03:31.177Z,33.20
2018-04-25T08:06:03.750Z,33.10
2018-04-25T08:08:31.336Z,30.10
2018-04-25T08:10:58.933Z,30.90
2018-04-25T08:13:38.648Z,29.50
2018-04-25T08:16:18.924Z,28.30
2018-04-25T08:18:58.522Z,27.80
2018-04-25T08:21:39.759Z,27.10
2018-04-25T08:24:07.353Z,25.70
2018-04-25T08:26:34.925Z,26.70
2018-04-25T08:29:02.464Z,25.70
2018-04-25T08:31:30.084Z,27.50
2018-04-25T08:33:58.513Z,25.00
2018-04-25T08:36:26.054Z,24.90
2018-04-25T08:38:53.566Z,26.70
2018-04-25T08:41:22.006Z,26.90
2018-04-25T08:43:49.583Z,27.00
2018-04-25T08:46:17.257Z,24.50
2018-04-25T08:48:45.646Z,25.50
2018-04-25T08:51:13.183Z,25.50
2018-04-25T08:53:40.733Z,25.20
2018-04-25T08:56:08.804Z,24.70
2018-04-25T08:58:36.419Z,26.70
2018-04-25T09:01:03.947Z,26.60
2018-04-25T09:03:31.791Z,27.00
2018-04-25T09:05:59.307Z,26.70
2018-04-25T09:08:26.858Z,25.10
2018-04-25T09:10:54.429Z,24.00
2018-04-25T09:13:22.063Z,25.90
2018-04-25T09:15:50.394Z,24.60
2018-04-25T09:18:17.964Z,24.60
2018-04-25T09:20:45.502Z,25.60
2018-04-25T09:23:13.255Z,23.40
2018-04-25T09:25:42.832Z,23.50
2018-04-25T09:28:11.102Z,23.90
2018-04-25T09:30:39.366Z,24.70
2018-04-25T09:33:06.979Z,24.70
2018-04-25T09:35:37.481Z,23.70
2018-04-25T09:38:05.057Z,23.50
2018-04-25T09:40:32.553Z,24.80
2018-04-25T09:43:00.131Z,25.00
2018-04-25T09:45:29.329Z,22.90
2018-04-25T09:47:56.874Z,22.90
2018-04-25T09:50:24.434Z,24.10
2018-04-25T09:52:51.991Z,23.60
2018-04-25T09:55:19.622Z,23.60
2018-04-25T09:57:47.265Z,24.80
2018-04-25T10:00:14.748Z,25.50
2018-04-25T10:02:42.292Z,25.40
2018-04-25T10:05:09.823Z,25.00
2018-04-25T10:07:38.180Z,25.70
2018-04-25T10:10:05.748Z,25.60
2018-04-25T10:12:33.319Z,25.40
2018-04-25T10:15:01.592Z,25.30
2018-04-25T10:17:29.958Z,25.80
2018-04-25T10:19:57.584Z,25.90
2018-04-25T10:22:25.132Z,25.70
2018-04-25T10:24:52.651Z,23.50
2018-04-25T10:27:20.961Z,25.00
2018-04-25T10:29:48.453Z,25.00
2018-04-25T10:32:16.076Z,24.40
2018-04-25T10:34:43.641Z,24.80
2018-04-25T10:37:11.167Z,25.00
2018-04-25T10:39:39.505Z,24.30
2018-04-25T10:42:07.007Z,24.30
2018-04-25T10:44:35.348Z,25.00
2018-04-25T10:47:02.923Z,25.00
2018-04-25T10:49:30.483Z,24.90
2018-04-25T10:51:57.978Z,26.00
2018-04-25T10:54:28.461Z,26.70
2018-04-25T10:56:56.020Z,27.20
2018-04-25T10:59:23.551Z,26.00
2018-04-25T11:01:51.088Z,26.40
2018-04-25T11:04:18.756Z,24.90
2018-04-25T11:06:46.167Z,26.50
2018-04-25T11:09:13.666Z,25.50
2018-04-25T11:11:41.225Z,25.40
2018-04-25T11:14:08.835Z,24.50
2018-04-25T11:16:36.276Z,26.20
2018-04-25T11:19:03.789Z,27.50
2018-04-25T11:21:31.315Z,25.90
2018-04-25T11:23:59.077Z,25.40
2018-04-25T11:26:26.649Z,26.40
2018-04-25T11:28:55.014Z,27.00
2018-04-25T11:31:22.591Z,26.50
2018-04-25T11:33:50.903Z,26.50
2018-04-25T11:36:18.466Z,26.50
2018-04-25T11:38:46.002Z,27.10
2018-04-25T11:41:13.537Z,25.40
2018-04-25T11:43:41.078Z,28.50
2018-04-25T11:46:08.671Z,26.40
2018-04-25T11:48:36.995Z,27.80
2018-04-25T11:51:04.633Z,27.70
2018-04-25T11:53:32.232Z,26.90
2018-04-25T11:55:59.791Z,26.90
2018-04-25T11:58:27.347Z,25.60
2018-04-25T12:00:54.862Z,26.10
2018-04-25T12:03:22.377Z,26.80
2018-04-25T12:05:49.927Z,26.70
2018-04-25T12:08:17.456Z,26.80
2018-04-25T12:10:45.126Z,26.00
2018-04-25T12:13:12.856Z,24.80
2018-04-25T12:15:40.697Z,27.80
2018-04-25T12:18:10.828Z,25.60
2018-04-25T12:20:39.206Z,28.70
2018-04-25T12:23:09.769Z,27.30
2018-04-25T12:25:37.700Z,27.20
2018-04-25T12:28:08.127Z,28.30
2018-04-25T12:30:36.161Z,27.80
2018-04-25T12:33:16.454Z,27.10
2018-04-25T12:35:56.429Z,27.40
2018-04-25T12:41:27.247Z,27.10
2018-04-25T12:43:54.956Z,26.70
2018-04-25T12:46:22.826Z,26.90
2018-04-25T12:48:50.690Z,27.70
2018-04-25T12:51:24.598Z,28.10
2018-04-25T12:53:55.234Z,28.40
2018-04-25T12:56:29.816Z,29.30
2018-04-25T12:58:57.621Z,27.50
2018-04-25T13:04:29.137Z,26.10
2018-04-25T13:07:06.709Z,26.10
2018-04-25T13:09:35.091Z,26.30
2018-04-25T13:12:02.725Z,25.50
2018-04-25T13:14:33.644Z,27.00
2018-04-25T13:17:02.387Z,26.00
2018-04-25T13:19:34.662Z,25.90
2018-04-25T13:22:02.256Z,25.80
2018-04-25T13:24:36.911Z,25.70
2018-04-25T13:27:04.416Z,25.70
2018-04-25T13:29:32.263Z,24.40
2018-04-25T13:32:00.788Z,24.90
2018-04-25T13:37:41.113Z,23.50
2018-04-25T13:40:34.192Z,25.20
2018-04-25T13:43:01.885Z,25.10
2018-04-25T13:45:30.402Z,24.20
2018-04-25T13:47:57.952Z,24.10
2018-04-25T13:50:25.527Z,25.00
2018-04-25T13:52:53.049Z,25.40
2018-04-25T13:55:21.342Z,24.90
2018-04-25T13:57:48.835Z,24.90
2018-04-25T14:00:17.590Z,25.70
2018-04-25T14:02:45.123Z,25.30
2018-04-25T14:05:13.400Z,24.90
2018-04-25T14:07:41.658Z,24.50
2018-04-25T14:10:09.832Z,24.40
2018-04-25T14:12:37.465Z,24.90
2018-04-25T14:15:05.173Z,25.40
2018-04-25T14:17:33.462Z,26.50
2018-04-25T14:20:09.744Z,26.40
2018-04-25T14:22:37.292Z,26.30
2018-04-25T14:25:04.836Z,26.90
2018-04-25T14:27:33.342Z,26.20
2018-04-25T14:30:00.870Z,26.10
2018-04-25T14:32:29.238Z,26.10
2018-04-25T14:34:56.793Z,26.10
2018-04-25T14:37:24.341Z,26.50
2018-04-25T14:39:51.869Z,26.30
2018-04-25T14:42:19.393Z,25.30
2018-04-25T14:44:46.943Z,25.60
2018-04-25T14:47:15.232Z,25.70
2018-04-25T14:49:43.526Z,25.50
2018-04-25T14:52:11.029Z,25.50
2018-04-25T14:54:38.570Z,25.50
2018-04-25T14:57:06.077Z,25.40
2018-04-25T14:59:33.624Z,26.10
2018-04-25T15:02:01.956Z,25.00
2018-04-25T15:04:29.494Z,25.10
2018-04-25T15:06:56.986Z,25.00
2018-04-25T15:09:24.698Z,26.30
2018-04-25T15:11:53.006Z,27.60
2018-04-25T15:14:20.513Z,27.50
2018-04-25T15:16:48.902Z,27.70
2018-04-25T15:19:17.156Z,28.00
2018-04-25T15:21:46.414Z,28.90
2018-04-25T15:24:13.927Z,28.80
2018-04-25T15:26:41.442Z,28.30
2018-04-25T15:29:09.998Z,28.20
2018-04-25T15:31:37.481Z,28.40
2018-04-25T15:34:05.023Z,29.70
2018-04-25T15:36:33.089Z,28.90
2018-04-25T15:39:00.691Z,28.20
2018-04-25T15:41:28.255Z,28.30
2018-04-25T15:43:55.744Z,28.30
2018-04-25T15:46:24.010Z,28.10
2018-04-25T15:48:51.523Z,28.10
2018-04-25T15:51:19.022Z,28.50
2018-04-25T15:53:46.532Z,28.20
2018-04-25T15:56:14.065Z,29.10
2018-04-25T15:58:42.383Z,29.40
2018-04-25T16:01:09.890Z,29.40
2018-04-25T16:03:38.175Z,29.20
2018-04-25T16:06:06.448Z,29.00
2018-04-25T16:08:34.706Z,28.40
2018-04-25T16:11:02.346Z,28.40
2018-04-25T16:13:29.811Z,30.40
2018-04-25T16:15:57.338Z,31.40
2018-04-25T16:18:24.855Z,31.60
2018-04-25T16:20:53.104Z,33.10
2018-04-25T16:23:20.614Z,33.10
2018-04-25T16:25:48.101Z,33.00
2018-04-25T16:28:15.633Z,33.30
2018-04-25T16:30:43.201Z,33.90
2018-04-25T16:33:11.651Z,34.00
2018-04-25T16:35:40.056Z,34.90
2018-04-25T16:38:07.557Z,34.80
2018-04-25T16:40:35.089Z,35.70
2018-04-25T16:43:02.601Z,36.30
2018-04-25T16:45:30.864Z,37.10
2018-04-25T16:47:59.393Z,37.10
2018-04-25T16:50:26.915Z,37.10
2018-04-25T16:52:55.204Z,37.70
2018-04-25T16:55:22.718Z,37.70
2018-04-25T16:57:50.224Z,37.20
2018-04-25T17:00:17.913Z,37.50
2018-04-25T17:02:45.414Z,37.50
2018-04-25T17:05:12.935Z,37.20
2018-04-25T17:07:40.453Z,38.50
2018-04-25T17:10:08.723Z,39.30
2018-04-25T17:12:37.001Z,39.20
2018-04-25T17:15:05.267Z,39.40
2018-04-25T17:17:32.835Z,39.30
2018-04-25T17:20:01.087Z,39.40
2018-04-25T17:22:28.594Z,39.30
2018-04-25T17:24:56.088Z,39.60
2018-04-25T17:27:23.597Z,39.90
2018-04-25T17:29:51.891Z,39.70
2018-04-25T17:32:19.406Z,40.50
2018-04-25T17:34:47.655Z,40.70
2018-04-25T17:37:15.163Z,40.00
2018-04-25T17:39:43.435Z,41.40
2018-04-25T17:42:11.719Z,42.10
2018-04-25T17:44:39.243Z,42.00
2018-04-25T17:47:06.760Z,41.60
2018-04-25T17:49:34.288Z,41.90
2018-04-25T17:52:02.554Z,42.40
2018-04-25T17:54:30.839Z,42.50
2018-04-25T17:56:59.106Z,42.70
2018-04-25T17:59:27.359Z,43.40
2018-04-25T18:01:55.643Z,43.60
2018-04-25T18:04:23.193Z,43.60
2018-04-25T18:06:50.700Z,43.30
2018-04-25T18:09:18.190Z,43.90
2018-04-25T18:11:45.728Z,43.40
2018-04-25T18:14:13.217Z,43.80
2018-04-25T18:16:40.736Z,44.70
2018-04-25T18:19:08.220Z,45.20
2018-04-25T18:21:35.727Z,44.50
2018-04-25T18:24:04.022Z,45.70
2018-04-25T18:26:31.526Z,45.60
2018-04-25T18:28:59.057Z,45.30
2018-04-25T18:31:26.559Z,45.80
2018-04-25T18:33:54.078Z,45.20
2018-04-25T18:36:21.556Z,45.60
2018-04-25T18:38:49.306Z,45.70
2018-04-25T18:41:27.477Z,46.90
2018-04-25T18:43:55.753Z,46.40
2018-04-25T18:46:23.270Z,46.30
2018-04-25T18:48:50.792Z,46.60
2018-04-25T18:51:18.298Z,46.80
2018-04-25T18:53:45.782Z,47.30
2018-04-25T18:56:14.075Z,46.70
2018-04-25T18:58:41.571Z,46.60
2018-04-25T19:01:09.089Z,46.70
2018-04-25T19:03:36.579Z,47.40
2018-04-25T19:06:04.084Z,46.90
2018-04-25T19:08:33.238Z,48.80
2018-04-25T19:11:00.741Z,48.70
2018-04-25T19:13:29.029Z,50.10
2018-04-25T19:15:56.508Z,50.00
2018-04-25T19:18:24.031Z,50.40
2018-04-25T19:20:52.289Z,50.70
2018-04-25T19:23:19.796Z,50.60
2018-04-25T19:25:47.344Z,50.80
2018-04-25T19:28:14.879Z,51.70
2018-04-25T19:30:43.141Z,53.60
2018-04-25T19:33:10.731Z,53.40
2018-04-25T19:35:38.219Z,53.80
2018-04-25T19:38:05.714Z,55.80
2018-04-25T19:40:33.212Z,56.70
2018-04-25T19:43:00.706Z,57.30
2018-04-25T19:45:28.204Z,57.40
2018-04-25T19:47:56.462Z,64.60
2018-04-25T19:50:23.993Z,64.50
2018-04-25T19:52:51.490Z,66.30
2018-04-25T19:55:19.093Z,62.70
2018-04-25T19:57:46.586Z,63.20
2018-04-25T20:00:14.085Z,64.70
2018-04-25T20:02:42.347Z,65.00
2018-04-25T20:05:10.607Z,66.10
2018-04-25T20:07:38.109Z,65.80
2018-04-25T20:10:05.608Z,66.90
2018-04-25T20:12:33.108Z,67.90
2018-04-25T20:15:01.369Z,67.60
2018-04-25T20:17:29.645Z,68.80
2018-04-25T20:19:57.133Z,67.90
2018-04-25T20:22:24.640Z,71.70
2018-04-25T20:24:52.143Z,71.10
2018-04-25T20:27:19.624Z,69.40
2018-04-25T20:29:47.154Z,72.20
2018-04-25T20:32:15.396Z,71.80
2018-04-25T20:34:42.900Z,71.70
2018-04-25T20:37:10.609Z,72.70
2018-04-25T20:39:38.142Z,71.30
2018-04-25T20:42:05.625Z,72.70
2018-04-25T20:44:33.137Z,72.40
2018-04-25T20:47:00.641Z,71.40
2018-04-25T20:49:28.124Z,71.40
2018-04-25T20:51:56.410Z,72.70
2018-04-25T20:54:24.750Z,70.10
2018-04-25T20:56:52.289Z,70.00
2018-04-25T20:59:19.779Z,69.80
2018-04-25T21:01:47.305Z,73.00
2018-04-25T21:04:14.808Z,74.60
2018-04-25T21:06:42.313Z,75.50
2018-04-25T21:09:09.811Z,74.60
2018-04-25T21:11:37.302Z,75.60
2018-04-25T21:14:05.581Z,75.10
2018-04-25T21:16:33.098Z,75.10
2018-04-25T21:19:00.606Z,73.70
2018-04-25T21:21:28.103Z,73.20
2018-04-25T21:23:55.675Z,73.70
2018-04-25T21:26:23.100Z,73.20
2018-04-25T21:28:50.603Z,72.60
2018-04-25T21:31:18.108Z,72.50
2018-04-25T21:33:45.621Z,71.50
2018-04-25T21:36:13.135Z,72.20
2018-04-25T21:38:40.617Z,72.90
2018-04-25T21:41:08.148Z,73.40
2018-04-25T21:43:35.633Z,73.10
2018-04-25T21:46:03.147Z,74.50
2018-04-25T21:48:30.641Z,74.70
2018-04-25T21:50:58.827Z,74.70
2018-04-25T21:53:26.317Z,75.40
2018-04-25T21:55:54.594Z,74.50
2018-04-25T21:58:22.844Z,72.60
2018-04-25T22:00:50.342Z,72.60
2018-04-25T22:03:17.841Z,74.50
2018-04-25T22:05:45.320Z,74.20
2018-04-25T22:08:12.834Z,74.40
2018-04-25T22:10:40.337Z,75.30
2018-04-25T22:13:07.841Z,75.00
2018-04-25T22:15:35.335Z,76.60
2018-04-25T22:18:02.837Z,76.60
2018-04-25T22:20:31.094Z,77.20
2018-04-25T22:22:59.383Z,77.50
2018-04-25T22:25:27.629Z,77.90
2018-04-25T22:27:55.133Z,77.80
2018-04-25T22:30:22.647Z,77.50
2018-04-25T22:32:50.149Z,77.80
2018-04-25T22:35:17.664Z,77.10
2018-04-25T22:37:45.170Z,76.30
2018-04-25T22:40:12.670Z,78.60
2018-04-25T22:42:40.157Z,78.00
2018-04-25T22:45:08.434Z,78.40
2018-04-25T22:47:36.685Z,78.40
2018-04-25T22:50:04.190Z,77.60
2018-04-25T22:52:31.697Z,77.40
2018-04-25T22:54:59.185Z,78.40
2018-04-25T22:57:27.470Z,78.70
2018-04-25T22:59:55.776Z,78.20
2018-04-25T23:02:23.282Z,78.10
2018-04-25T23:04:50.806Z,79.00
2018-04-25T23:07:18.315Z,77.60
2018-04-25T23:09:46.574Z,75.90
2018-04-25T23:12:14.860Z,75.50
2018-04-25T23:14:42.359Z,75.40
2018-04-25T23:17:09.845Z,75.00
2018-04-25T23:19:37.341Z,73.80
2018-04-25T23:22:05.613Z,74.70
2018-04-25T23:24:33.892Z,73.80
2018-04-25T23:27:02.201Z,74.40
2018-04-25T23:29:29.697Z,74.20
2018-04-25T23:31:57.256Z,75.30
2018-04-25T23:34:24.768Z,74.90
2018-04-25T23:36:52.260Z,74.90
2018-04-25T23:39:19.745Z,76.50
2018-04-25T23:41:47.246Z,74.10
2018-04-25T23:44:14.733Z,74.20
2018-04-25T23:46:42.243Z,73.20
2018-04-25T23:49:10.569Z,73.30
2018-04-25T23:51:38.064Z,73.10
2018-04-25T23:54:05.558Z,72.80
2018-04-25T23:56:33.070Z,75.60
2018-04-25T23:59:00.548Z,75.50
